Spicewood, Texas
Current Conditions -  °F | °C
As of 1:55 AM on Monday 22 Dec 2014 (Local Time) from KRYW Reporting Station
Overcast Overcast  
Wind Chill: 56°   Ceiling: 1200
Heat Index: 56°   Visibility: 10mi
Dew Point: 52°   Wind: 9mph
Humidity: 86%   Direction: 200°SSW
Pressure: 29.78"   Gusts: 21mph
Location:  30.48°N, 98.16°W
Report Text: KRYW 220755Z AUTO 20008G18KT 170V240 10SM OVC012 14/11 A2978 RMK AO2 T01350112
Loading
Personal Weather Stations






























Interactive Weather Map New forecast layout! Learn more

10-Day Weather Forecast

Advertisements
Track Severe Weather on mobile